Terminal Aerodrome Forecast
Issued by NWS

Current Version | Previous Version | Text Only | Print | Product List | Glossary On
Versions: 1 2 3 4 5 6 7 8 9 10 11 12 13
000
FTUS43 KICT 250522
TAFSLN
TAF
KSLN 250522Z 2506/2606 13008KT P6SM VCSH BKN090
      TEMPO 2508/2512 6SM SHRA OVC050
     FM251500 VRB04KT P6SM VCSH OVC060
     FM252200 04007KT 6SM SHRA VCTS OVC035CB
     FM260300 02007KT 5SM SHRA OVC025=

USA.gov is the U.S. government's official web portal to all federal, state and local government web resources and services.